Time;durP1;ratioP1;P1;durP2;ratioP2;P2;SDS_P1;SDS_P2;PMS_P1;PMS_P2;Temp;Humidity;BMP_temperature;BMP_pressure;BME280_temperature;BME280_humidity;BME280_pressure;Samples;Min_cycle;Max_cycle;Signal;HPM_P1;HPM_P2
2021/09/14 00:01:06;;;;;;;;;;;;;;;-144.99;93.46;52501.09;5076364;28;19996;-80
2021/09/14 00:03:32;;;;;;;;;;;;;;;-144.99;93.47;52460.31;5067273;28;20005;-79
2021/09/14 00:05:58;;;;;;;;;;;;;;;-144.99;93.18;52452.16;5065725;28;20115;-82
2021/09/14 00:08:25;;;;;;;;;;;;;;;-144.99;93.42;52492.94;5067582;28;19979;-78
2021/09/14 00:10:53;;;;;;;;;;;;;;;-144.99;93.31;52488.84;5068732;28;20130;-79
2021/09/14 00:13:19;;;;;;;;;;;;;;;-144.99;93.45;52488.84;5069644;28;19990;-78
2021/09/14 00:15:46;;;;;;;;;;;;;;;-144.99;92.96;52529.63;5068226;28;19970;-76
2021/09/14 00:18:12;;;;;;;;;;;;;;;-144.99;92.97;52484.78;5068176;28;20104;-78
2021/09/14 00:20:39;;;;;;;;;;;;;;;-144.99;93.11;52492.94;5067675;28;20066;-81
2021/09/14 00:23:05;;;;;;;;;;;;;;;-144.99;93.17;52509.25;5070780;28;20258;-73
2021/09/14 00:25:32;;;;;;;;;;;;;;;-144.99;93.07;52468.47;5070364;28;19978;-78
2021/09/14 00:28:00;;;;;;;;;;;;;;;-144.99;93.12;52476.63;5069667;28;20073;-76
2021/09/14 00:30:26;;;;;;;;;;;;;;;-144.99;93.16;52523.50;5068515;28;19985;-77
2021/09/14 00:32:52;;;;;;;;;;;;;;;-144.99;93.46;52484.78;5068306;28;20369;-79
2021/09/14 00:35:19;;;;;;;;;;;;;;;-144.99;93.91;52492.94;5069044;28;19974;-78
2021/09/14 00:37:45;;;;;;;;;;;;;;;-144.99;94.13;52460.31;5067139;28;19972;-80
2021/09/14 00:40:12;;;;;;;;;;;;;;;-144.99;94.35;52484.78;5067686;28;19996;-78
2021/09/14 00:42:39;;;;;;;;;;;;;;;-144.99;94.32;52446.06;5066682;28;20000;-77
2021/09/14 00:45:09;;;;;;;;;;;;;;;-144.99;94.06;52488.84;5068326;28;19975;-77
2021/09/14 00:47:35;;;;;;;;;;;;;;;-144.99;93.91;52494.97;5067578;28;20010;-78
2021/09/14 00:50:02;;;;;;;;;;;;;;;-144.99;94.20;52448.09;5067232;28;19975;-82
2021/09/14 00:52:29;;;;;;;;;;;;;;;-144.99;94.03;52488.84;5066675;28;20162;-78
2021/09/14 00:54:55;;;;;;;;;;;;;;;-144.99;93.92;52484.78;5063692;28;19980;-77
2021/09/14 00:57:21;;;;;;;;;;;;;;;-144.99;94.15;52484.78;5068028;28;20099;-77
2021/09/14 00:59:48;;;;;;;;;;;;;;;-144.99;94.08;52464.41;5067606;28;19972;-79
2021/09/14 01:02:16;;;;;;;;;;;;;;;-144.99;94.35;52458.28;5067359;28;19996;-78
2021/09/14 01:04:42;;;;;;;;;;;;;;;-144.99;94.87;52486.81;5063502;28;19979;-76
2021/09/14 01:07:09;;;;;;;;;;;;;;;-144.99;95.28;52484.78;5065584;28;19991;-77
2021/09/14 01:09:36;;;;;;;;;;;;;;;-144.99;95.48;52468.47;5065823;28;20455;-76
2021/09/14 01:12:03;;;;;;;;;;;;;;;-144.99;95.33;52462.34;5067385;28;19982;-76
2021/09/14 01:14:29;;;;;;;;;;;;;;;-144.99;95.61;52505.16;5067396;28;19974;-77
2021/09/14 01:16:56;;;;;;;;;;;;;;;-144.99;95.65;52468.47;5066520;28;19976;-76
2021/09/14 01:19:24;;;;;;;;;;;;;;;-144.99;95.81;52503.13;5066325;28;19975;-78
2021/09/14 01:21:50;;;;;;;;;;;;;;;-144.99;95.91;52484.78;5063361;28;19978;-74
2021/09/14 01:24:18;;;;;;;;;;;;;;;-144.99;96.14;52470.50;5064840;28;19981;-76
2021/09/14 01:26:44;;;;;;;;;;;;;;;-144.99;96.08;52480.72;5067320;28;19991;-79
2021/09/14 01:29:11;;;;;;;;;;;;;;;-144.99;96.23;52486.81;5066713;28;19984;-77
2021/09/14 01:31:38;;;;;;;;;;;;;;;-144.99;96.92;52484.78;5066534;28;19992;-76
2021/09/14 01:34:05;;;;;;;;;;;;;;;-144.99;96.96;52468.47;5067362;28;20087;-76
2021/09/14 01:36:31;;;;;;;;;;;;;;;-144.99;96.98;52464.41;5065238;28;19979;-76
2021/09/14 01:38:57;;;;;;;;;;;;;;;-144.99;97.17;52509.25;5065676;28;19993;-76
2021/09/14 01:41:25;;;;;;;;;;;;;;;-144.99;97.34;52464.41;5067566;28;20455;-75
2021/09/14 01:43:52;;;;;;;;;;;;;;;-144.99;97.24;52492.94;5068467;28;20368;-79
2021/09/14 01:46:18;;;;;;;;;;;;;;;-144.99;97.17;52474.59;5068354;28;20005;-76
2021/09/14 01:48:44;;;;;;;;;;;;;;;-144.99;96.98;52456.25;5068638;28;20001;-78
2021/09/14 01:51:11;;;;;;;;;;;;;;;-144.99;96.82;52492.94;5066545;28;20455;-77
2021/09/14 01:53:37;;;;;;;;;;;;;;;-144.99;96.77;52501.09;5054976;28;19990;-77
2021/09/14 01:56:05;;;;;;;;;;;;;;;-144.99;96.99;52460.31;5064726;28;19973;-75
2021/09/14 01:58:33;;;;;;;;;;;;;;;-144.99;97.14;52435.88;5068022;28;20012;-80
2021/09/14 02:01:04;;;;;;;;;;;;;;;-144.99;97.01;52484.78;5066320;28;19976;-78
2021/09/14 02:03:36;;;;;;;;;;;;;;;-144.99;96.75;52462.34;5064676;28;20076;-74
2021/09/14 02:38:19;;;;;;;;;;;;;;;-144.99;97.69;52484.78;5025962;28;20051;-77
2021/09/14 02:40:00;;;;;;;;;;;;;;;-144.99;96.73;52509.25;5069191;28;19997;-76
2021/09/14 02:42:36;;;;;;;;;;;;;;;-144.99;97.19;52425.66;5069286;28;20489;-75
2021/09/14 02:56:27;;;;;;;;;;;;;;;-144.99;97.39;52472.56;5065433;28;20021;-79
2021/09/14 02:58:52;;;;;;;;;;;;;;;-144.99;97.32;52482.75;5062444;28;19979;-77
2021/09/14 03:01:18;;;;;;;;;;;;;;;-144.99;97.01;52505.16;5065758;28;19976;-76
2021/09/14 03:03:49;;;;;;;;;;;;;;;-144.99;97.06;52484.78;5064239;28;19958;-80
2021/09/14 03:06:15;;;;;;;;;;;;;;;-144.99;97.20;52497.00;5059922;28;20334;-75
2021/09/14 03:08:42;;;;;;;;;;;;;;;-144.99;97.26;52441.97;5065649;28;19975;-77
2021/09/14 03:11:09;;;;;;;;;;;;;;;-144.99;96.68;52460.31;5067433;28;20002;-79
2021/09/14 03:13:36;;;;;;;;;;;;;;;-144.99;96.35;52482.75;5065560;28;21753;-77
2021/09/14 03:16:02;;;;;;;;;;;;;;;-144.99;96.50;52488.84;5065830;28;19986;-79
2021/09/14 03:18:29;;;;;;;;;;;;;;;-144.99;96.73;52501.09;5064868;28;20448;-78
2021/09/14 03:20:58;;;;;;;;;;;;;;;-144.99;96.82;52513.31;5064653;28;19975;-80
2021/09/14 03:23:24;;;;;;;;;;;;;;;-144.99;96.73;52464.41;5063555;28;20485;-78
2021/09/14 03:25:51;;;;;;;;;;;;;;;-144.99;96.24;52501.09;5065484;28;19974;-80
2021/09/14 03:28:17;;;;;;;;;;;;;;;-144.99;96.56;52505.16;5065986;28;20441;-80
2021/09/14 03:30:44;;;;;;;;;;;;;;;-144.99;96.86;52468.47;5064762;28;19977;-81
2021/09/14 03:33:10;;;;;;;;;;;;;;;-144.99;96.83;52470.50;5064962;28;19996;-79
2021/09/14 03:35:37;;;;;;;;;;;;;;;-144.99;97.51;52460.31;5065693;28;19978;-77
2021/09/14 03:38:05;;;;;;;;;;;;;;;-144.99;98.04;52464.41;5064512;28;20435;-81
2021/09/14 03:40:31;;;;;;;;;;;;;;;-144.99;98.08;52476.63;5065797;28;19976;-79
2021/09/14 03:42:58;;;;;;;;;;;;;;;-144.99;97.97;52468.47;5069982;28;20454;-77
2021/09/14 03:45:24;;;;;;;;;;;;;;;-144.99;98.02;52492.94;5070102;28;19976;-76
2021/09/14 03:47:50;;;;;;;;;;;;;;;-144.99;98.00;52464.41;5069255;28;19998;-79
2021/09/14 03:50:17;;;;;;;;;;;;;;;-144.99;97.61;52488.84;5068862;28;20457;-76
2021/09/14 03:52:43;;;;;;;;;;;;;;;-144.99;97.34;52482.75;5066199;28;19991;-79
2021/09/14 03:55:11;;;;;;;;;;;;;;;-144.99;97.12;52468.47;5064458;28;19980;-80
2021/09/14 03:57:38;;;;;;;;;;;;;;;-144.99;97.04;52488.84;5067059;28;19987;-81
2021/09/14 04:00:05;;;;;;;;;;;;;;;-144.99;97.29;52488.84;5067858;28;20462;-76
2021/09/14 04:02:35;;;;;;;;;;;;;;;-144.99;97.27;52464.41;5068440;28;20001;-76
2021/09/14 04:07:53;;;;;;;;;;;;;;;-144.99;97.23;52484.78;5048998;28;19997;-76
2021/09/14 04:10:21;;;;;;;;;;;;;;;-144.99;97.55;52470.50;5067800;28;19994;-76
2021/09/14 04:12:47;;;;;;;;;;;;;;;-144.99;97.75;52468.47;5069943;28;19990;-76
2021/09/14 04:15:14;;;;;;;;;;;;;;;-144.99;97.78;52519.44;5068975;28;19975;-76
2021/09/14 04:17:40;;;;;;;;;;;;;;;-144.99;97.63;52456.25;5068461;28;19972;-74
2021/09/14 04:20:07;;;;;;;;;;;;;;;-144.99;97.90;52484.78;5068948;28;19983;-77
2021/09/14 04:22:33;;;;;;;;;;;;;;;-144.99;98.06;52480.72;5068353;28;20086;-72
2021/09/14 04:25:00;;;;;;;;;;;;;;;-144.99;98.27;52484.78;5068657;28;20431;-74
2021/09/14 04:27:27;;;;;;;;;;;;;;;-144.99;98.66;52501.09;5068834;28;20002;-73
2021/09/14 04:29:54;;;;;;;;;;;;;;;-144.99;98.99;52452.16;5067483;28;20360;-71
2021/09/14 04:32:20;;;;;;;;;;;;;;;-144.99;99.29;52472.56;5067486;28;19992;-71
2021/09/14 04:34:46;;;;;;;;;;;;;;;-144.99;99.06;52488.84;5067794;28;19980;-74
2021/09/14 04:37:13;;;;;;;;;;;;;;;-144.99;99.81;52501.09;5066730;28;19975;-74
2021/09/14 04:39:39;;;;;;;;;;;;;;;-144.99;100.00;52472.56;5066659;28;20059;-72
2021/09/14 04:42:08;;;;;;;;;;;;;;;-144.99;100.00;52460.31;5067621;28;20058;-73
2021/09/14 04:44:36;;;;;;;;;;;;;;;-144.99;100.00;52460.31;5067777;28;19972;-72
2021/09/14 04:47:02;;;;;;;;;;;;;;;-144.99;100.00;52482.75;5067045;28;19998;-73
2021/09/14 04:49:29;;;;;;;;;;;;;;;-144.99;100.00;52509.25;5067179;28;19945;-73
2021/09/14 04:51:55;;;;;;;;;;;;;;;-144.99;100.00;52505.16;5065596;28;20210;-72
2021/09/14 04:54:22;;;;;;;;;;;;;;;-144.99;100.00;52466.44;5061013;28;19994;-72
2021/09/14 04:56:48;;;;;;;;;;;;;;;-144.99;100.00;52478.66;5067361;28;20332;-72
2021/09/14 04:59:14;;;;;;;;;;;;;;;-144.99;100.00;52492.94;5066286;28;19975;-72
2021/09/14 05:01:43;;;;;;;;;;;;;;;-144.99;100.00;52501.09;5067985;28;20393;-74
2021/09/14 05:04:10;;;;;;;;;;;;;;;-144.99;100.00;52497.00;5066927;28;19994;-75
2021/09/14 05:06:36;;;;;;;;;;;;;;;-144.99;100.00;52468.47;5064189;28;19983;-73
2021/09/14 05:09:03;;;;;;;;;;;;;;;-144.99;100.00;52427.72;5065896;28;20002;-76
2021/09/14 05:11:31;;;;;;;;;;;;;;;-144.99;100.00;52439.94;5069472;28;19983;-73
2021/09/14 05:13:58;;;;;;;;;;;;;;;-144.99;100.00;52460.31;5066995;28;19998;-73
2021/09/14 05:16:24;;;;;;;;;;;;;;;-144.99;100.00;52458.28;4362750;28;10000072;-73
2021/09/14 05:18:52;;;;;;;;;;;;;;;-144.99;100.00;52450.13;5063337;28;19980;-74
2021/09/14 05:21:19;;;;;;;;;;;;;;;-144.99;100.00;52490.91;5061972;28;20345;-74
2021/09/14 05:23:45;;;;;;;;;;;;;;;-144.99;100.00;52470.50;5061878;28;19990;-72
2021/09/14 05:26:12;;;;;;;;;;;;;;;-144.99;100.00;52427.72;5062982;28;19982;-76
2021/09/14 05:28:39;;;;;;;;;;;;;;;-144.99;100.00;52460.31;5055222;28;19992;-75
2021/09/14 05:31:07;;;;;;;;;;;;;;;-144.99;100.00;52460.31;5063553;28;19976;-74
2021/09/14 05:33:34;;;;;;;;;;;;;;;-144.99;100.00;52444.03;5065240;28;20015;-76
2021/09/14 05:36:02;;;;;;;;;;;;;;;-144.99;100.00;52452.16;5064492;28;20075;-75
2021/09/14 05:38:29;;;;;;;;;;;;;;;-144.99;100.00;52468.47;5063283;28;19983;-74
2021/09/14 05:40:56;;;;;;;;;;;;;;;-144.99;100.00;52476.63;5063206;28;20419;-78
2021/09/14 05:43:22;;;;;;;;;;;;;;;-144.99;99.66;52472.56;5065020;28;20082;-72
2021/09/14 05:45:49;;;;;;;;;;;;;;;-144.99;99.03;52460.31;5065042;28;20032;-75
2021/09/14 05:48:19;;;;;;;;;;;;;;;-144.99;98.62;52444.03;5064834;28;19999;-72
2021/09/14 05:50:45;;;;;;;;;;;;;;;-144.99;98.44;52429.75;5063458;28;20573;-73
2021/09/14 05:53:13;;;;;;;;;;;;;;;-144.99;98.00;52448.09;5058250;28;20027;-74
2021/09/14 05:55:40;;;;;;;;;;;;;;;-144.99;97.81;52450.13;5087916;22;19994;-71
2021/09/14 05:58:07;;;;;;;;;;;;;;;-144.99;97.48;52439.94;5065422;28;20455;-72
2021/09/14 06:00:34;;;;;;;;;;;;;;;-144.99;97.46;52415.47;5064650;28;20365;-73
2021/09/14 06:03:01;;;;;;;;;;;;;;;-144.99;97.53;52492.94;5066010;28;19983;-74
2021/09/14 06:05:28;;;;;;;;;;;;;;;-144.99;97.47;52448.09;5065156;28;19991;-74
2021/09/14 06:07:54;;;;;;;;;;;;;;;-144.99;97.65;52433.81;5063699;28;20006;-72
2021/09/14 06:10:22;;;;;;;;;;;;;;;-144.99;97.57;52409.38;5065223;28;19982;-73
2021/09/14 06:12:50;;;;;;;;;;;;;;;-144.99;97.62;52472.56;5066369;28;20097;-73
2021/09/14 06:15:16;;;;;;;;;;;;;;;-144.99;97.83;52460.31;5065943;28;19998;-73
2021/09/14 06:17:43;;;;;;;;;;;;;;;-144.99;97.75;52476.63;5065488;28;19975;-73
2021/09/14 06:20:10;;;;;;;;;;;;;;;-144.99;97.60;52429.75;5065853;28;20372;-73
2021/09/14 06:22:37;;;;;;;;;;;;;;;-144.99;97.83;52439.94;5064374;28;19988;-73
2021/09/14 06:25:03;;;;;;;;;;;;;;;-144.99;98.21;52444.03;5065401;28;20259;-73
2021/09/14 06:27:31;;;;;;;;;;;;;;;-144.99;98.77;52476.63;5064954;28;20322;-72
2021/09/14 06:29:57;;;;;;;;;;;;;;;-144.99;99.20;52401.22;5065313;28;19985;-73
2021/09/14 06:32:25;;;;;;;;;;;;;;;-144.99;99.15;52433.81;5065392;28;20521;-74
2021/09/14 06:34:51;;;;;;;;;;;;;;;-144.99;98.90;52448.09;5065982;28;20044;-74
2021/09/14 06:37:18;;;;;;;;;;;;;;;-144.99;98.58;52421.59;5064441;28;20119;-75
2021/09/14 06:39:44;;;;;;;;;;;;;;;-144.99;97.93;52470.50;5064638;28;20060;-73
2021/09/14 06:42:10;;;;;;;;;;;;;;;-144.99;97.41;52429.75;5064955;28;20392;-73
2021/09/14 06:44:38;;;;;;;;;;;;;;;-144.99;97.23;52423.63;5064933;28;19993;-70
2021/09/14 06:47:05;;;;;;;;;;;;;;;-144.99;96.49;52407.31;5064040;28;19984;-73
2021/09/14 06:49:31;;;;;;;;;;;;;;;-144.99;95.96;52423.63;5063692;28;19996;-72
2021/09/14 06:51:57;;;;;;;;;;;;;;;-144.99;95.48;52382.88;5063403;28;19981;-73
2021/09/14 06:54:24;;;;;;;;;;;;;;;-144.99;94.91;52366.56;5056415;28;20001;-72
2021/09/14 06:56:50;;;;;;;;;;;;;;;-144.99;94.29;52399.19;5065014;28;20129;-72
2021/09/14 06:59:17;;;;;;;;;;;;;;;-144.99;93.38;52399.19;5062031;28;20073;-73
2021/09/14 07:01:44;;;;;;;;;;;;;;;-144.99;92.63;52391.03;5077536;28;20047;-73
2021/09/14 07:04:11;;;;;;;;;;;;;;;-144.99;92.02;52378.78;5072023;28;19998;-73
2021/09/14 07:06:37;;;;;;;;;;;;;;;-144.99;90.58;52388.97;5062611;28;19983;-74
2021/09/14 07:09:04;;;;;;;;;;;;;;;-144.99;90.24;52346.19;5064830;28;19996;-74
2021/09/14 07:11:30;;;;;;;;;;;;;;;-144.99;89.72;52378.78;5065922;28;20139;-72
2021/09/14 07:13:58;;;;;;;;;;;;;;;-144.99;88.63;52346.19;5065822;28;20101;-72
2021/09/14 07:16:24;;;;;;;;;;;;;;;-144.99;87.27;52350.25;5068000;28;20079;-72
2021/09/14 07:18:52;;;;;;;;;;;;;;;-144.99;85.67;52338.03;5068814;28;19994;-73
2021/09/14 07:21:18;;;;;;;;;;;;;;;-144.99;85.35;52342.09;5067961;28;19975;-73
2021/09/14 07:23:45;;;;;;;;;;;;;;;-144.99;85.08;52366.56;5069658;28;20321;-74
2021/09/14 07:26:11;;;;;;;;;;;;;;;-144.99;83.99;52362.50;5068677;28;20113;-75
2021/09/14 07:28:38;;;;;;;;;;;;;;;-144.99;83.12;52350.25;5059636;28;19991;-74
2021/09/14 07:31:05;;;;;;;;;;;;;;;-144.99;81.83;52372.69;5068405;28;20065;-74
2021/09/14 07:33:31;;;;;;;;;;;;;;;-144.99;81.40;52362.50;5069248;28;19951;-74
2021/09/14 07:35:59;;;;;;;;;;;;;;;-144.99;80.94;52344.16;5068169;28;20431;-72
2021/09/14 07:38:25;;;;;;;;;;;;;;;-144.99;80.39;52333.94;5067186;28;19989;-73
2021/09/14 07:40:52;;;;;;;;;;;;;;;-144.99;79.29;52362.50;5067981;28;19980;-73
2021/09/14 07:43:18;;;;;;;;;;;;;;;-144.99;79.49;52348.22;5068441;28;20024;-73
2021/09/14 07:45:45;;;;;;;;;;;;;;;-144.99;79.60;52370.63;5068559;28;19997;-72
2021/09/14 07:48:11;;;;;;;;;;;;;;;-144.99;79.74;52325.81;5068948;28;20081;-72
2021/09/14 07:50:37;;;;;;;;;;;;;;;-144.99;80.25;52348.22;5064139;28;19987;-74
2021/09/14 07:53:05;;;;;;;;;;;;;;;-144.99;79.86;52313.56;5067416;28;20422;-74
2021/09/14 07:55:32;;;;;;;;;;;;;;;-144.99;78.86;52293.19;5068732;28;20530;-74
2021/09/14 07:57:58;;;;;;;;;;;;;;;-144.99;78.12;52342.09;5068189;28;19987;-73
2021/09/14 08:00:25;;;;;;;;;;;;;;;-144.99;77.12;52313.56;5068499;28;20389;-73
2021/09/14 08:02:55;;;;;;;;;;;;;;;-144.99;75.99;52338.03;5067730;28;20064;-74
2021/09/14 08:05:21;;;;;;;;;;;;;;;-144.99;76.04;52311.53;5066319;28;20034;-75
2021/09/14 08:07:48;;;;;;;;;;;;;;;-144.99;75.81;52301.34;5066468;28;19984;-75
2021/09/14 08:10:16;;;;;;;;;;;;;;;-144.99;75.99;52287.06;5067207;28;20010;-72
2021/09/14 08:12:42;;;;;;;;;;;;;;;-144.99;75.49;52374.72;5068423;28;19963;-73
2021/09/14 08:15:10;;;;;;;;;;;;;;;-144.99;75.21;52317.66;5068101;28;19997;-74
2021/09/14 08:17:36;;;;;;;;;;;;;;;-144.99;74.98;52321.72;5068045;28;20056;-74
2021/09/14 08:20:03;;;;;;;;;;;;;;;-144.99;74.62;52323.75;5067777;28;20350;-73
2021/09/14 08:22:30;;;;;;;;;;;;;;;-144.99;73.79;52346.19;5068131;28;20477;-72
2021/09/14 08:24:56;;;;;;;;;;;;;;;-144.99;72.65;52329.88;5068156;28;20034;-73
2021/09/14 08:27:24;;;;;;;;;;;;;;;-144.99;72.80;52313.56;5067014;28;19966;-74
2021/09/14 08:29:50;;;;;;;;;;;;;;;-144.99;72.78;52317.66;5066748;28;19978;-73
2021/09/14 08:32:17;;;;;;;;;;;;;;;-144.99;72.70;52289.13;5067546;28;19993;-74
2021/09/14 08:34:43;;;;;;;;;;;;;;;-144.99;71.58;52278.91;5067023;28;20007;-72
2021/09/14 08:37:10;;;;;;;;;;;;;;;-144.99;71.62;52299.31;5065869;28;20074;-73
2021/09/14 08:39:36;;;;;;;;;;;;;;;-144.99;70.10;52325.81;5065744;28;20038;-72
2021/09/14 08:42:02;;;;;;;;;;;;;;;-144.99;68.63;52309.50;5067129;28;20400;-73
2021/09/14 08:44:30;;;;;;;;;;;;;;;-144.99;67.99;52305.41;5066066;28;20629;-73
2021/09/14 08:47:00;;;;;;;;;;;;;;;-144.99;67.10;52272.81;5067937;28;19951;-73
2021/09/14 08:49:27;;;;;;;;;;;;;;;-144.99;66.35;52301.34;5069146;28;20024;-74
2021/09/14 08:51:53;;;;;;;;;;;;;;;-144.99;66.46;52297.25;5068305;28;20450;-75
2021/09/14 08:54:19;;;;;;;;;;;;;;;-144.99;65.96;52289.13;5068889;28;20472;-71
2021/09/14 08:56:46;;;;;;;;;;;;;;;-144.99;64.71;52268.72;5069127;28;19950;-75
2021/09/14 08:59:12;;;;;;;;;;;;;;;-144.99;63.95;52252.44;5067278;28;19950;-75
2021/09/14 09:01:40;;;;;;;;;;;;;;;-144.99;62.89;52248.34;5081423;28;19945;-75
2021/09/14 09:04:08;;;;;;;;;;;;;;;-144.99;62.17;52248.34;5066521;28;20405;-73
2021/09/14 09:06:35;;;;;;;;;;;;;;;-144.99;61.46;52252.44;5067267;28;19998;-74
2021/09/14 09:09:11;;;;;;;;;;;;;;;-144.99;61.04;52268.72;5067146;28;20244;-74
2021/09/14 09:11:38;;;;;;;;;;;;;;;-144.99;60.46;52264.66;5063870;28;19941;-74
2021/09/14 09:14:06;;;;;;;;;;;;;;;-144.99;59.06;52285.03;5066769;28;20016;-74
2021/09/14 09:16:33;;;;;;;;;;;;;;;-144.99;57.47;52236.13;5066331;28;20002;-73
2021/09/14 09:19:02;;;;;;;;;;;;;;;-144.99;57.13;52240.19;5067518;28;20023;-73
2021/09/14 09:21:29;;;;;;;;;;;;;;;-144.99;57.17;52270.78;5066608;28;19943;-74
2021/09/14 09:23:56;;;;;;;;;;;;;;;-144.99;56.72;52244.28;5066228;28;19928;-74
2021/09/14 09:26:29;;;;;;;;;;;;;;;-144.99;55.91;52199.44;5067054;28;19943;-74
2021/09/14 09:28:58;;;;;;;;;;;;;;;-144.99;55.30;52254.47;5065795;28;19928;-75
2021/09/14 09:31:24;;;;;;;;;;;;;;;-144.99;54.52;52248.34;5065526;28;20089;-74
2021/09/14 09:34:01;;;;;;;;;;;;;;;-144.99;54.13;52215.75;5067122;28;19935;-74
2021/09/14 09:36:29;;;;;;;;;;;;;;;-144.99;53.17;52236.13;5063890;28;19963;-74
2021/09/14 09:38:58;;;;;;;;;;;;;;;-144.99;53.08;52187.19;5065567;28;20422;-75
2021/09/14 09:41:24;;;;;;;;;;;;;;;-144.99;52.30;52211.66;5063788;28;19970;-74
2021/09/14 09:43:51;;;;;;;;;;;;;;;-144.99;51.60;52207.59;5065204;28;20476;-74
2021/09/14 09:46:21;;;;;;;;;;;;;;;-144.99;51.61;52207.59;5064742;28;20010;-74
2021/09/14 09:48:48;;;;;;;;;;;;;;;-144.99;52.27;52250.38;5063873;28;19929;-74
2021/09/14 09:51:16;;;;;;;;;;;;;;;-144.99;52.45;52242.22;5063326;28;20384;-74
2021/09/14 09:53:42;;;;;;;;;;;;;;;-144.99;52.62;52187.19;5059658;28;19939;-75
2021/09/14 09:56:09;;;;;;;;;;;;;;;-144.99;52.68;52244.28;5065343;28;19936;-73
2021/09/14 09:58:36;;;;;;;;;;;;;;;-144.99;51.88;52223.88;5064383;28;19928;-74
2021/09/14 10:01:05;;;;;;;;;;;;;;;-144.99;51.99;52191.28;5064656;28;20220;-74
2021/09/14 10:03:32;;;;;;;;;;;;;;;-144.99;52.23;52191.28;5065132;28;20004;-74
2021/09/14 10:06:08;;;;;;;;;;;;;;;-144.99;51.28;52203.50;5056058;28;19925;-75
2021/09/14 10:08:38;;;;;;;;;;;;;;;-144.99;50.25;52211.66;5064006;28;20187;-74
2021/09/14 10:11:05;;;;;;;;;;;;;;;-144.99;49.76;52170.91;5063847;28;19975;-74
2021/09/14 10:13:33;;;;;;;;;;;;;;;-144.99;48.59;52142.38;5064385;28;19931;-74
2021/09/14 10:16:00;;;;;;;;;;;;;;;-144.99;47.79;52113.84;5063907;28;19948;-74
2021/09/14 10:18:27;;;;;;;;;;;;;;;-144.99;46.72;52103.66;5064539;28;19933;-74
2021/09/14 10:20:54;;;;;;;;;;;;;;;-144.99;45.22;52115.88;5063260;28;19932;-73
2021/09/14 10:23:22;;;;;;;;;;;;;;;-144.99;45.14;52105.69;5063647;28;20112;-75
2021/09/14 10:25:51;;;;;;;;;;;;;;;-144.99;44.55;52056.78;5065476;28;20066;-75
2021/09/14 10:28:19;;;;;;;;;;;;;;;-144.99;42.36;52089.38;5065899;28;19932;-76
2021/09/14 10:30:46;;;;;;;;;;;;;;;-144.99;41.80;52020.09;5063121;28;20283;-76
2021/09/14 10:33:18;;;;;;;;;;;;;;;-144.99;41.76;52040.47;5065662;28;19935;-75
2021/09/14 10:35:45;;;;;;;;;;;;;;;-144.99;41.73;52036.38;5065182;28;20399;-74
2021/09/14 10:38:13;;;;;;;;;;;;;;;-144.99;41.60;52056.78;5064748;28;19936;-75
2021/09/14 10:40:41;;;;;;;;;;;;;;;-144.99;42.93;52089.38;5061036;28;19943;-76
2021/09/14 10:43:09;;;;;;;;;;;;;;;-144.99;42.58;52054.72;5064608;28;19928;-75
2021/09/14 10:45:43;;;;;;;;;;;;;;;-144.99;41.80;52048.63;5063129;28;20026;-76
2021/09/14 10:48:19;;;;;;;;;;;;;;;-144.99;42.52;52032.31;5063033;28;19946;-76
2021/09/14 10:50:45;;;;;;;;;;;;;;;-144.99;41.60;51979.31;5063865;28;19972;-76
2021/09/14 10:53:21;;;;;;;;;;;;;;;-144.99;40.98;52040.47;5065133;28;19925;-74
2021/09/14 10:55:51;;;;;;;;;;;;;;;-144.99;40.65;52146.44;5070493;28;19929;-75
2021/09/14 10:58:19;;;;;;;;;;;;;;;-144.99;41.07;51991.56;5070881;28;19951;-75
2021/09/14 11:00:48;;;;;;;;;;;;;;;-144.99;40.81;51987.47;5069238;28;20067;-75
2021/09/14 11:03:15;;;;;;;;;;;;;;;-144.99;40.29;52105.69;5071972;28;19934;-76
2021/09/14 11:05:41;;;;;;;;;;;;;;;-144.99;40.74;52134.22;5070229;28;19925;-76
2021/09/14 11:08:08;;;;;;;;;;;;;;;-144.99;40.43;51999.69;5070457;28;19928;-76
2021/09/14 11:10:35;;;;;;;;;;;;;;;-144.99;40.36;51967.09;5073637;28;19958;-75
2021/09/14 11:13:02;;;;;;;;;;;;;;;-144.99;39.41;51924.28;5087943;28;19999;-75
2021/09/14 11:15:30;;;;;;;;;;;;;;;-144.99;39.55;51926.34;5072063;28;20170;-75
2021/09/14 11:17:56;;;;;;;;;;;;;;;-144.99;38.48;51930.41;5071129;28;20014;-76
2021/09/14 11:20:25;;;;;;;;;;;;;;;-144.99;38.35;51918.19;5071084;28;19928;-75
2021/09/14 11:22:53;;;;;;;;;;;;;;;-144.99;37.96;52022.13;5070344;28;19928;-75
2021/09/14 11:25:20;;;;;;;;;;;;;;;-144.99;37.72;52073.06;5061441;28;20066;-75
2021/09/14 11:27:54;;;;;;;;;;;;;;;-144.99;39.10;52101.59;5071541;28;19928;-76
2021/09/14 11:30:20;;;;;;;;;;;;;;;-144.99;40.95;52146.44;5069618;28;20370;-75
2021/09/14 11:32:49;;;;;;;;;;;;;;;-144.99;41.35;52211.66;5071201;28;20391;-75
2021/09/14 11:35:16;;;;;;;;;;;;;;;-144.99;42.60;52221.84;5072340;28;19928;-76
2021/09/14 11:37:42;;;;;;;;;;;;;;;-144.99;43.28;52240.19;5071328;28;19933;-75
2021/09/14 11:40:17;;;;;;;;;;;;;;;-144.99;42.70;52040.47;5071692;28;19931;-75
2021/09/14 11:42:51;;;;;;;;;;;;;;;-144.99;40.69;52018.03;5070085;28;19939;-74
2021/09/14 11:45:17;;;;;;;;;;;;;;;-144.99;39.50;51952.81;5073280;28;19929;-76
2021/09/14 11:47:44;;;;;;;;;;;;;;;-144.99;38.08;51926.34;5073153;28;19924;-75
2021/09/14 11:50:12;;;;;;;;;;;;;;;-144.99;37.83;51930.41;5072659;28;19928;-76
2021/09/14 11:52:38;;;;;;;;;;;;;;;-144.99;37.91;51930.41;5070168;28;19929;-74
2021/09/14 11:55:08;;;;;;;;;;;;;;;-144.99;38.26;51971.16;5095886;22;20341;-80
2021/09/14 11:57:34;;;;;;;;;;;;;;;-144.99;38.06;52016.00;5077549;28;20486;-75
2021/09/14 12:00:10;;;;;;;;;;;;;;;-144.99;37.36;51914.09;5083028;28;19938;-75
2021/09/14 12:02:36;;;;;;;;;;;;;;;-144.99;36.83;52089.38;5083679;28;19928;-79
2021/09/14 12:05:02;;;;;;;;;;;;;;;-144.99;37.25;52048.63;5082662;28;19939;-79
2021/09/14 12:07:30;;;;;;;;;;;;;;;-144.99;37.75;52105.69;5069895;28;19944;-78
2021/09/14 12:10:03;;;;;;;;;;;;;;;-144.99;37.93;51950.78;5077966;28;19934;-76
2021/09/14 12:12:30;;;;;;;;;;;;;;;-144.99;37.58;51928.38;5081673;28;19934;-75
2021/09/14 12:14:56;;;;;;;;;;;;;;;-144.99;37.10;51926.34;5083934;28;20200;-76
2021/09/14 12:17:27;;;;;;;;;;;;;;;-144.99;37.29;51930.41;5082462;28;20421;-76
2021/09/14 12:19:53;;;;;;;;;;;;;;;-144.99;37.98;51918.19;5079182;28;19928;-79
2021/09/14 12:22:20;;;;;;;;;;;;;;;-144.99;37.28;51934.50;5081779;28;19934;-76
2021/09/14 12:24:48;;;;;;;;;;;;;;;-144.99;37.57;51901.88;5075606;28;19932;-76
2021/09/14 12:27:14;;;;;;;;;;;;;;;-144.99;37.45;51965.06;5075529;28;19928;-76
2021/09/14 12:29:40;;;;;;;;;;;;;;;-144.99;37.97;51936.53;5083411;28;19936;-79
2021/09/14 12:32:07;;;;;;;;;;;;;;;-144.99;37.59;51928.38;5073534;28;20374;-75
2021/09/14 12:34:33;;;;;;;;;;;;;;;-144.99;38.04;52064.91;5084082;28;19928;-75
2021/09/14 12:37:00;;;;;;;;;;;;;;;-144.99;38.68;52130.13;5080429;28;20027;-79
2021/09/14 12:39:26;;;;;;;;;;;;;;;-144.99;39.02;51979.31;5082647;28;20034;-75
2021/09/14 12:41:54;;;;;;;;;;;;;;;-144.99;38.83;51958.94;5078429;28;19939;-78
2021/09/14 12:44:20;;;;;;;;;;;;;;;-144.99;38.53;51934.50;5083459;28;19932;-77
2021/09/14 12:46:47;;;;;;;;;;;;;;;-144.99;37.67;51942.63;5083414;28;19928;-78
2021/09/14 12:49:13;;;;;;;;;;;;;;;-144.99;37.95;51954.88;5078597;28;19981;-75
2021/09/14 12:51:40;;;;;;;;;;;;;;;-144.99;37.71;51956.91;5081255;28;20134;-76
2021/09/14 12:54:06;;;;;;;;;;;;;;;-144.99;38.09;52089.38;5077704;28;20187;-77
2021/09/14 12:56:33;;;;;;;;;;;;;;;-144.99;38.09;52069.00;5080913;28;19932;-74
2021/09/14 12:59:00;;;;;;;;;;;;;;;-144.99;38.07;51983.41;5082964;28;20028;-75
2021/09/14 13:01:27;;;;;;;;;;;;;;;-144.99;37.75;51946.72;5076510;28;19975;-75
2021/09/14 13:03:53;;;;;;;;;;;;;;;-144.99;37.65;51910.03;5083300;28;20350;-76
2021/09/14 13:06:23;;;;;;;;;;;;;;;-144.99;36.94;51918.19;5067462;28;19999;-75
2021/09/14 13:08:49;;;;;;;;;;;;;;;-144.99;36.86;51918.19;5074460;28;19975;-75
2021/09/14 13:11:16;;;;;;;;;;;;;;;-144.99;36.81;51956.91;5083175;28;19939;-75